Fortuneswell, United Kingdom
Current Conditions -  °F | °C
As of 9:20 PM on Thursday 20 Nov 2014 (Local Time) from EGHH Reporting Station
Broken Clouds Broken Clouds  
Wind Chill: 44°   Ceiling: 1500
Heat Index: 48°   Visibility: 6mi
Dew Point: 43°   Wind: 10mph
Humidity: 82%   Direction: 80°E
Pressure: 30.18"   Gusts: NA
Location:  50.56°N, 2.44°W
Report Text: EGHH 202120Z 08009KT 9999 BKN015 09/06 Q1022
Loading
Personal Weather Stations






























Interactive Weather Map New forecast layout! Learn more

10-Day Weather Forecast

Advertisements
Track Severe Weather on mobile